Time;durP1;ratioP1;P1;durP2;ratioP2;P2;SDS_P1;SDS_P2;PMS_P1;PMS_P2;Temp;Humidity;BMP_temperature;BMP_pressure;BME280_temperature;BME280_humidity;BME280_pressure;Samples;Min_cycle;Max_cycle;Signal;HPM_P1;HPM_P2
2021/12/24 00:01:23;;;;;;;65.35;34.48;;;;;;;-3.01;82.73;98853.70;1662592;85;27509;-73
2021/12/24 00:03:50;;;;;;;68.90;36.00;;;;;;;-2.99;82.90;98852.13;1658331;86;25482;-73
2021/12/24 00:06:16;;;;;;;72.67;35.00;;;;;;;-2.99;82.92;98845.52;1658384;86;25470;-73
2021/12/24 00:08:45;;;;;;;71.35;35.20;;;;;;;-2.97;82.83;98847.38;1658346;86;25618;-72
2021/12/24 00:11:13;;;;;;;77.53;36.23;;;;;;;-2.96;83.33;98838.40;1655318;86;25603;-71
2021/12/24 00:13:43;;;;;;;82.50;38.13;;;;;;;-2.95;83.52;98836.01;1658431;86;27394;-71
2021/12/24 00:22:10;;;;;;;73.17;35.65;;;;;;;-2.91;83.66;98816.44;1552352;92;25663;-72
2021/12/24 00:37:28;;;;;;;72.67;35.78;;;;;;;-2.85;84.33;98810.14;1552396;92;25569;-71
2021/12/24 00:40:09;;;;;;;76.92;35.35;;;;;;;-2.83;84.48;98796.11;1552342;92;27368;-71
2021/12/24 00:42:23;;;;;;;75.37;35.65;;;;;;;-2.84;84.40;98788.72;1550326;91;25714;-72
2021/12/24 00:44:50;;;;;;;72.90;35.58;;;;;;;-2.85;84.64;98788.43;1552440;92;25694;-71
2021/12/24 00:47:17;;;;;;;75.60;37.48;;;;;;;-2.83;84.69;98778.41;1552345;92;26391;-73
2021/12/24 00:49:44;;;;;;;75.72;35.28;;;;;;;-2.83;85.14;98776.27;1552362;92;25810;-73
2021/12/24 00:55:09;;;;;;;74.58;35.98;;;;;;;-2.82;85.23;98772.58;1552337;92;25270;-72
2021/12/24 00:57:40;;;;;;;76.72;35.92;;;;;;;-2.82;85.06;98768.61;1593831;86;25547;-73
2021/12/24 01:00:16;;;;;;;75.05;34.23;;;;;;;-2.80;85.07;98767.03;1665427;85;25702;-72
2021/12/24 01:02:44;;;;;;;70.25;33.88;;;;;;;-2.79;85.21;98764.64;1666374;86;25569;-72
2021/12/24 01:05:14;;;;;;;75.35;35.28;;;;;;;-2.79;85.33;98761.48;1644650;86;28023;-73
2021/12/24 01:07:41;;;;;;;72.58;36.48;;;;;;;-2.79;85.31;98752.22;1666377;86;25649;-73
2021/12/24 01:10:09;;;;;;;70.20;35.70;;;;;;;-2.80;85.48;98735.27;1666346;86;25472;-73
2021/12/24 01:12:36;;;;;;;72.58;34.35;;;;;;;-2.82;85.58;98720.44;1666254;86;26150;-73
2021/12/24 01:15:06;;;;;;;67.67;33.92;;;;;;;-2.80;86.01;98718.86;1666322;86;25596;-73
2021/12/24 01:17:39;;;;;;;66.85;33.85;;;;;;;-2.82;85.84;98715.14;1666462;86;28040;-72
2021/12/24 01:20:11;;;;;;;73.37;34.90;;;;;;;-2.82;86.01;98710.39;1665347;86;25590;-72
2021/12/24 01:25:38;;;;;;;73.93;34.27;;;;;;;-2.83;86.37;98683.64;1666590;86;25629;-73
2021/12/24 01:28:00;;;;;;;75.67;36.10;;;;;;;-2.82;86.40;98682.60;1656065;86;25780;-73
2021/12/24 01:37:56;;;;;;;74.40;35.70;;;;;;;-2.83;86.34;98673.06;1663047;86;27877;-73
2021/12/24 01:40:40;;;;;;;76.33;35.92;;;;;;;-2.83;86.65;98671.23;1582701;90;25549;-73
2021/12/24 01:42:55;;;;;;;70.25;34.88;;;;;;;-2.82;86.69;98663.54;1582831;90;27327;-73
2021/12/24 01:45:30;;;;;;;71.10;35.85;;;;;;;-2.80;86.82;98659.84;1582616;90;25706;-73
2021/12/24 01:48:01;;;;;;;75.47;36.38;;;;;;;-2.82;87.08;98645.02;1579310;90;25639;-73
2021/12/24 01:50:33;;;;;;;69.35;34.20;;;;;;;-2.80;86.95;98643.44;1582512;90;25743;-73
2021/12/24 01:53:01;;;;;;;70.25;33.35;;;;;;;-2.80;86.90;98628.87;1582706;90;25684;-72
2021/12/24 01:55:28;;;;;;;72.75;34.70;;;;;;;-2.78;86.99;98628.62;1582699;90;27428;-73
2021/12/24 01:57:57;;;;;;;73.28;36.20;;;;;;;-2.79;86.93;98623.86;1581856;90;25691;-73
2021/12/24 02:00:28;;;;;;;67.15;34.18;;;;;;;-2.77;86.99;98633.66;1582008;90;25611;-73
2021/12/24 02:02:56;;;;;;;69.55;35.03;;;;;;;-2.76;86.91;98619.88;1582071;90;25628;-73
2021/12/24 02:05:23;;;;;;;73.10;34.85;;;;;;;-2.77;87.19;98608.52;1582009;90;25678;-73
2021/12/24 02:07:52;;;;;;;73.15;34.83;;;;;;;-2.77;87.26;98609.84;1581995;90;27437;-73
2021/12/24 02:10:20;;;;;;;70.22;35.43;;;;;;;-2.75;87.23;98614.87;1581896;90;25573;-73
2021/12/24 02:12:49;;;;;;;69.37;34.55;;;;;;;-2.73;87.36;98598.19;1581968;90;25713;-73
2021/12/24 02:28:52;;;;;;;66.65;34.27;;;;;;;-2.72;87.40;98582.05;1567927;91;25689;-72
2021/12/24 02:31:23;;;;;;;69.87;35.78;;;;;;;-2.71;87.61;98566.95;1568015;91;25512;-72
2021/12/24 02:33:51;;;;;;;69.03;35.52;;;;;;;-2.72;87.46;98575.44;1544260;91;27867;-72
2021/12/24 02:36:20;;;;;;;70.80;34.63;;;;;;;-2.72;87.86;98564.84;1567867;91;25709;-73
2021/12/24 02:38:48;;;;;;;69.90;34.00;;;;;;;-2.71;87.67;98567.74;1568239;91;25685;-72
2021/12/24 02:41:15;;;;;;;66.25;33.20;;;;;;;-2.70;87.81;98552.67;1544279;91;25723;-72
2021/12/24 02:43:42;;;;;;;65.42;34.03;;;;;;;-2.70;87.74;98537.58;1548073;91;25651;-73
2021/12/24 02:46:14;;;;;;;67.32;32.53;;;;;;;-2.70;87.75;98537.58;1567940;91;28267;-72
2021/12/24 02:54:00;;;;;;;65.32;33.75;;;;;;;-2.69;87.86;98539.69;1568008;91;26248;-72
2021/12/24 02:56:34;;;;;;;66.42;32.73;;;;;;;-2.69;87.94;98533.89;1656299;86;25413;-72
2021/12/24 02:59:06;;;;;;;64.37;32.58;;;;;;;-2.66;87.92;98528.58;1657871;86;27959;-72
2021/12/24 03:01:38;;;;;;;67.00;32.60;;;;;;;-2.64;87.98;98519.84;1657702;86;25410;-72
2021/12/24 03:04:06;;;;;;;69.32;33.55;;;;;;;-2.64;87.99;98514.03;1657630;86;25567;-72
2021/12/24 03:06:38;;;;;;;65.80;32.85;;;;;;;-2.64;88.11;98516.68;1657779;86;26233;-72
2021/12/24 03:09:09;;;;;;;67.60;33.30;;;;;;;-2.63;88.31;98505.55;1657905;86;25586;-73
2021/12/24 03:11:37;;;;;;;66.25;33.98;;;;;;;-2.63;88.12;98497.07;1657855;86;27891;-73
2021/12/24 03:14:07;;;;;;;64.75;31.27;;;;;;;-2.63;88.10;98494.42;1657823;86;27033;-73
2021/12/24 03:16:35;;;;;;;65.57;32.95;;;;;;;-2.61;88.18;98478.82;1654166;86;25601;-73
2021/12/24 03:19:04;;;;;;;63.98;33.40;;;;;;;-2.60;88.14;98477.77;1658133;86;25658;-73
2021/12/24 03:21:39;;;;;;;65.22;33.05;;;;;;;-2.60;88.22;98483.85;1634973;86;25597;-73
2021/12/24 03:26:37;;;;;;;65.32;31.75;;;;;;;-2.58;88.24;98483.59;1658053;86;25720;-73
2021/12/24 03:29:07;;;;;;;62.05;32.38;;;;;;;-2.57;88.37;98474.06;1657948;86;25438;-73
2021/12/24 03:31:36;;;;;;;67.22;32.45;;;;;;;-2.56;88.14;98461.06;1657886;86;25617;-72
2021/12/24 03:34:05;;;;;;;;;;;;;;;-2.57;88.19;98460.82;1660441;86;25637;-72
2021/12/24 03:36:32;;;;;;;67.97;31.37;;;;;;;-2.56;88.33;98452.34;1658225;86;27383;-72
2021/12/24 03:38:59;;;;;;;62.48;31.82;;;;;;;-2.57;88.32;98448.91;1657839;86;25593;-73
2021/12/24 03:41:26;;;;;;;67.75;31.52;;;;;;;-2.58;88.38;98447.85;1657924;86;25539;-72
2021/12/24 03:43:53;;;;;;;59.23;31.30;;;;;;;-2.58;88.44;98451.28;1657884;86;25630;-73
2021/12/24 03:46:29;;;;;;;64.87;31.62;;;;;;;-2.58;88.40;98444.66;1657969;86;25575;-73
2021/12/24 03:51:29;;;;;;;63.02;34.73;;;;;;;-2.56;88.57;98437.78;1657899;86;25706;-73
2021/12/24 03:56:35;;;;;;;61.18;31.20;;;;;;;-2.57;88.44;98422.95;1657845;86;25679;-73
2021/12/24 03:59:03;;;;;;;65.87;32.20;;;;;;;-2.55;88.57;98422.17;1657958;86;25437;-73
2021/12/24 04:01:30;;;;;;;63.02;30.85;;;;;;;-2.53;88.55;98434.06;1657889;86;27334;-73
2021/12/24 04:03:56;;;;;;;60.33;31.33;;;;;;;-2.52;88.53;98438.82;1657833;86;25486;-73
2021/12/24 04:06:23;;;;;;;65.60;31.60;;;;;;;-2.50;89.05;98439.37;1657919;86;25427;-73
2021/12/24 04:08:50;;;;;;;58.13;30.95;;;;;;;-2.51;88.54;98429.29;1657921;86;25643;-73
2021/12/24 04:11:17;;;;;;;65.70;32.78;;;;;;;-2.50;88.60;98430.88;1657899;86;25425;-73
2021/12/24 04:13:44;;;;;;;64.05;31.33;;;;;;;-2.51;88.84;98414.73;1657832;86;27936;-73
2021/12/24 04:16:11;;;;;;;62.25;31.12;;;;;;;-2.50;88.75;98407.59;1634478;86;25719;-73
2021/12/24 04:18:54;;;;;;;60.98;31.70;;;;;;;-2.49;88.80;98402.55;1657897;86;25641;-73
2021/12/24 04:26:41;;;;;;;60.98;30.55;;;;;;;-2.48;88.92;98382.96;1638201;86;27347;-73
2021/12/24 04:29:08;;;;;;;60.92;31.07;;;;;;;-2.48;88.83;98377.67;1657877;86;25497;-73
2021/12/24 04:31:53;;;;;;;61.08;31.12;;;;;;;-2.47;88.87;98363.34;1657892;86;25468;-73
2021/12/24 04:34:11;;;;;;;64.42;32.30;;;;;;;-2.45;88.91;98363.89;1655013;84;26301;-73
2021/12/24 04:39:35;;;;;;;62.53;31.45;;;;;;;-2.44;89.08;98356.20;1657971;86;28290;-73
2021/12/24 04:52:54;;;;;;;62.48;30.57;;;;;;;-2.42;89.30;98364.66;1657910;86;27460;-73
2021/12/24 05:03:30;;;;;;;58.50;29.80;;;;;;;-2.39;89.66;98364.66;1541374;92;25453;-71
2021/12/24 05:06:09;;;;;;;66.57;31.42;;;;;;;-2.39;89.68;98364.66;1540882;93;27907;-71
2021/12/24 05:08:27;;;;;;;56.85;29.32;;;;;;;-2.38;89.86;98359.09;1539440;91;25679;-71
2021/12/24 05:10:53;;;;;;;56.90;30.75;;;;;;;-2.37;89.71;98366.50;1540972;93;25637;-71
2021/12/24 05:13:22;;;;;;;56.75;29.92;;;;;;;-2.37;89.83;98371.80;1541187;93;25774;-71
2021/12/24 05:15:53;;;;;;;58.87;30.00;;;;;;;-2.35;89.96;98369.16;1541394;93;25708;-71
2021/12/24 05:18:29;;;;;;;54.27;28.85;;;;;;;-2.35;89.88;98362.53;1540832;91;27342;-71
2021/12/24 05:23:31;;;;;;;62.58;30.43;;;;;;;-2.33;89.88;98360.94;1541291;92;25723;-73
2021/12/24 05:25:58;;;;;;;63.48;30.57;;;;;;;-2.33;89.73;98360.39;1541257;93;25618;-73
2021/12/24 05:28:25;;;;;;;59.55;30.72;;;;;;;-2.31;89.77;98362.78;1593800;86;25613;-73
2021/12/24 05:30:52;;;;;;;65.05;31.33;;;;;;;-2.30;89.77;98358.54;1722252;83;27315;-73
2021/12/24 05:33:19;;;;;;;57.48;28.70;;;;;;;-2.29;89.83;98352.70;1722138;83;25466;-73
2021/12/24 05:35:46;;;;;;;58.33;30.62;;;;;;;-2.29;89.92;98354.81;1707900;82;25460;-73
2021/12/24 05:38:15;;;;;;;58.73;30.37;;;;;;;-2.27;90.09;98346.59;1696737;84;25632;-73
2021/12/24 05:40:43;;;;;;;55.35;29.02;;;;;;;-2.27;89.94;98336.00;1696936;84;33472;-73
2021/12/24 05:43:11;;;;;;;61.83;30.88;;;;;;;-2.25;89.86;98331.22;1696774;84;27938;-73
2021/12/24 05:45:39;;;;;;;56.77;28.92;;;;;;;-2.23;89.88;98329.11;1696685;84;25448;-73
2021/12/24 05:48:06;;;;;;;55.90;30.52;;;;;;;-2.22;89.86;98328.57;1696777;84;25536;-73
2021/12/24 05:50:32;;;;;;;61.90;31.27;;;;;;;-2.21;89.85;98325.66;1696709;84;25633;-73
2021/12/24 05:52:59;;;;;;;63.58;31.25;;;;;;;-2.19;89.94;98323.52;1696817;84;25401;-72
2021/12/24 05:55:26;;;;;;;55.03;27.98;;;;;;;-2.18;89.81;98323.78;1664582;84;27220;-73
2021/12/24 05:57:52;;;;;;;55.70;30.20;;;;;;;-2.16;89.90;98323.48;1691112;83;25431;-72
2021/12/24 06:00:19;;;;;;;65.62;29.75;;;;;;;-2.15;89.89;98321.89;1679296;85;25538;-72
2021/12/24 06:02:46;;;;;;;62.30;31.82;;;;;;;-2.14;89.87;98319.52;1676681;85;25637;-72
2021/12/24 06:05:13;;;;;;;56.70;30.50;;;;;;;-2.13;89.93;98321.11;1676718;85;25363;-72
2021/12/24 06:07:39;;;;;;;58.40;30.25;;;;;;;-2.12;89.98;98321.35;1676722;85;27874;-72
2021/12/24 06:10:07;;;;;;;57.80;28.98;;;;;;;-2.12;89.97;98317.37;1676614;85;25663;-72
2021/12/24 06:12:34;;;;;;;64.55;31.87;;;;;;;-2.10;89.97;98325.05;1655500;85;25675;-72
2021/12/24 06:15:03;;;;;;;60.08;30.75;;;;;;;-2.10;90.00;98324.52;1676645;85;25743;-72
2021/12/24 06:17:29;;;;;;;55.80;30.80;;;;;;;-2.08;90.07;98324.24;1676802;85;25417;-73
2021/12/24 06:19:56;;;;;;;60.67;30.97;;;;;;;-2.08;90.21;98324.24;1676804;85;27323;-72
2021/12/24 06:22:23;;;;;;;59.45;30.75;;;;;;;-2.07;90.26;98321.32;1676746;85;25608;-72
2021/12/24 06:24:50;;;;;;;60.73;30.50;;;;;;;-2.07;90.23;98326.63;1676759;85;25554;-73
2021/12/24 06:27:18;;;;;;;59.03;30.20;;;;;;;-2.06;90.26;98323.43;1673093;85;25649;-73
2021/12/24 06:29:44;;;;;;;62.05;32.63;;;;;;;-2.05;90.23;98319.73;1676738;85;25463;-73
2021/12/24 06:32:11;;;;;;;61.42;30.00;;;;;;;-2.03;90.30;98310.19;1676696;85;28005;-73
2021/12/24 06:34:38;;;;;;;59.45;31.35;;;;;;;-2.02;90.32;98311.23;1676573;85;25624;-73
2021/12/24 06:37:05;;;;;;;60.80;32.17;;;;;;;-2.01;90.32;98315.48;1676704;85;25539;-73
2021/12/24 06:39:31;;;;;;;62.62;30.85;;;;;;;-2.00;90.38;98324.21;1676686;85;25633;-72
2021/12/24 06:41:59;;;;;;;65.32;32.23;;;;;;;-1.97;90.46;98317.05;1676687;85;25438;-72
2021/12/24 06:44:26;;;;;;;60.95;32.03;;;;;;;-1.95;90.40;98316.23;1676679;85;27372;-72
2021/12/24 06:46:52;;;;;;;68.00;33.73;;;;;;;-1.94;90.41;98317.28;1676728;85;25672;-72
2021/12/24 06:49:19;;;;;;;65.97;32.65;;;;;;;-1.91;90.41;98316.74;1676881;85;25487;-73
2021/12/24 06:51:47;;;;;;;56.73;31.40;;;;;;;-1.88;90.46;98314.84;1650845;85;25524;-73
2021/12/24 06:54:13;;;;;;;61.13;31.68;;;;;;;-1.85;90.46;98312.19;1676992;85;25553;-73
2021/12/24 06:56:40;;;;;;;62.65;31.77;;;;;;;-1.82;90.44;98314.81;1676881;85;27459;-73
2021/12/24 06:59:07;;;;;;;59.03;32.38;;;;;;;-1.81;90.38;98308.45;1705624;83;25425;-73
2021/12/24 07:01:34;;;;;;;62.88;32.67;;;;;;;-1.80;90.42;98304.20;1708742;84;25419;-73
2021/12/24 07:04:01;;;;;;;63.78;32.48;;;;;;;-1.78;90.38;98299.95;1708730;84;25645;-73
2021/12/24 07:06:29;;;;;;;64.37;32.55;;;;;;;-1.76;90.42;98292.52;1679102;85;25649;-73
2021/12/24 07:08:57;;;;;;;59.98;32.08;;;;;;;-1.73;90.51;98293.29;1681513;85;28010;-73
2021/12/24 07:11:24;;;;;;;59.80;32.95;;;;;;;-1.70;90.58;98286.11;1687092;85;25627;-73
2021/12/24 07:13:52;;;;;;;64.47;32.55;;;;;;;-1.71;90.61;98278.67;1692382;84;25444;-73
2021/12/24 07:16:19;;;;;;;60.30;33.67;;;;;;;-1.68;90.53;98285.84;1667488;85;25621;-73
2021/12/24 07:18:46;;;;;;;63.68;33.88;;;;;;;-1.68;90.54;98279.99;1667331;86;25883;-73
2021/12/24 07:21:13;;;;;;;64.62;32.75;;;;;;;-1.65;90.68;98286.08;1667310;85;27321;-73
2021/12/24 07:23:40;;;;;;;58.60;31.90;;;;;;;-1.64;90.67;98292.94;1660960;86;25419;-73
2021/12/24 07:26:07;;;;;;;61.58;32.28;;;;;;;-1.62;90.76;98290.80;1657936;86;25678;-73
2021/12/24 07:28:34;;;;;;;57.17;30.88;;;;;;;-1.61;90.71;98283.11;1657908;86;26335;-73
2021/12/24 07:31:01;;;;;;;61.95;33.25;;;;;;;-1.58;90.77;98279.91;1657947;86;25614;-73
2021/12/24 07:33:28;;;;;;;59.88;32.85;;;;;;;-1.56;90.75;98282.29;1634583;86;27248;-73
2021/12/24 07:35:54;;;;;;;59.25;32.65;;;;;;;-1.52;90.81;98289.39;1657845;86;25543;-73
2021/12/24 07:38:21;;;;;;;62.95;32.42;;;;;;;-1.49;90.76;98289.92;1657950;86;25668;-73
2021/12/24 07:40:48;;;;;;;67.32;33.28;;;;;;;-1.45;90.76;98301.55;1657854;86;25680;-72
2021/12/24 07:43:15;;;;;;;60.98;32.42;;;;;;;-1.42;90.82;98304.97;1657964;86;25627;-74
2021/12/24 07:45:44;;;;;;;64.70;35.33;;;;;;;-1.40;90.83;98305.48;1657934;86;27345;-73
2021/12/24 07:48:15;;;;;;;66.50;34.87;;;;;;;-1.37;90.88;98303.60;1658190;86;25669;-73
2021/12/24 07:53:16;;;;;;;67.03;34.65;;;;;;;-1.33;90.85;98300.13;1657996;86;25574;-73
2021/12/24 07:55:45;;;;;;;60.65;33.78;;;;;;;-1.29;90.93;98299.02;1634851;86;25677;-74
2021/12/24 07:58:14;;;;;;;66.65;34.83;;;;;;;-1.27;90.87;98298.20;1657951;86;27923;-73
2021/12/24 08:00:44;;;;;;;62.83;34.55;;;;;;;-1.25;90.82;98297.92;1658495;86;25693;-73
2021/12/24 08:03:10;;;;;;;;;;;;;;;-1.24;90.83;98296.84;1637448;86;25513;-74
2021/12/24 08:05:40;;;;;;;62.65;32.20;;;;;;;-1.21;90.89;98301.59;1658389;86;25691;-74
2021/12/24 08:08:11;;;;;;;62.83;32.58;;;;;;;-1.22;90.85;98304.01;1577891;90;25611;-74
2021/12/24 08:10:41;;;;;;;55.92;32.70;;;;;;;-1.21;90.95;98297.61;1577950;90;26855;-74
2021/12/24 08:13:08;;;;;;;63.90;34.13;;;;;;;-1.20;91.05;98297.33;1578072;90;25466;-74
2021/12/24 08:15:35;;;;;;;62.75;33.88;;;;;;;-1.17;91.03;98307.94;1577968;90;25709;-73
2021/12/24 08:18:02;;;;;;;61.23;33.00;;;;;;;-1.15;91.17;98316.41;1574796;90;25838;-73
2021/12/24 08:20:29;;;;;;;60.43;32.15;;;;;;;-1.13;91.15;98314.25;1578018;89;25476;-74
2021/12/24 08:22:56;;;;;;;63.08;33.42;;;;;;;-1.10;91.31;98324.86;1577959;90;27001;-73
2021/12/24 08:25:24;;;;;;;64.70;33.50;;;;;;;-1.10;91.23;98326.97;1557695;90;25689;-74
2021/12/24 08:27:52;;;;;;;60.35;33.42;;;;;;;-1.08;91.28;98320.84;1577955;90;25668;-74
2021/12/24 08:30:19;;;;;;;65.40;33.67;;;;;;;-1.06;91.32;98320.56;1577967;90;25628;-74
2021/12/24 08:32:45;;;;;;;64.32;32.98;;;;;;;-1.04;91.34;98311.78;1618531;86;25468;-73
2021/12/24 08:35:16;;;;;;;59.55;32.48;;;;;;;-1.00;91.32;98310.16;1658289;86;26878;-74
2021/12/24 08:37:43;;;;;;;68.33;36.08;;;;;;;-0.99;91.31;98311.73;1658268;86;25639;-74
2021/12/24 08:40:12;;;;;;;69.17;35.38;;;;;;;-0.98;91.35;98304.03;1658355;86;25586;-74
2021/12/24 08:42:39;;;;;;;62.88;34.15;;;;;;;-0.93;91.40;98308.50;1654822;86;25677;-74
2021/12/24 08:45:08;;;;;;;58.92;33.92;;;;;;;-0.90;91.44;98300.77;1658388;86;25649;-74
2021/12/24 08:47:35;;;;;;;63.85;34.03;;;;;;;-0.87;91.48;98292.25;1654928;86;27940;-74
2021/12/24 08:50:04;;;;;;;63.92;34.45;;;;;;;-0.83;91.41;98283.18;1658296;86;25646;-75
2021/12/24 08:52:31;;;;;;;65.22;35.63;;;;;;;-0.79;91.52;98290.27;1658537;86;25572;-73
2021/12/24 08:54:58;;;;;;;64.60;34.08;;;;;;;-0.74;91.48;98286.00;1658279;86;26312;-74
2021/12/24 08:57:25;;;;;;;60.63;34.05;;;;;;;-0.71;91.44;98276.92;1634939;86;25665;-74
2021/12/24 08:59:53;;;;;;;65.50;35.20;;;;;;;-0.67;91.44;98267.30;1657873;86;27355;-74
2021/12/24 09:02:19;;;;;;;61.02;33.88;;;;;;;-0.62;91.42;98262.48;1657763;86;25659;-74
2021/12/24 09:04:46;;;;;;;65.62;34.05;;;;;;;-0.59;91.39;98260.04;1657875;86;25470;-74
2021/12/24 09:07:13;;;;;;;63.30;34.90;;;;;;;-0.53;91.52;98259.97;1657827;86;25654;-74
2021/12/24 09:09:39;;;;;;;62.15;34.35;;;;;;;-0.49;91.39;98253.81;1657839;86;25634;-74
2021/12/24 09:12:07;;;;;;;61.48;33.83;;;;;;;-0.44;91.43;98255.08;1657987;86;28084;-74
2021/12/24 09:14:34;;;;;;;66.67;34.60;;;;;;;-0.40;91.48;98244.66;1657857;86;25485;-73
2021/12/24 09:17:02;;;;;;;63.45;33.48;;;;;;;-0.34;91.53;98249.36;1657966;86;25570;-74
2021/12/24 09:19:30;;;;;;;60.88;33.15;;;;;;;-0.28;91.50;98239.70;1657817;86;25624;-74
2021/12/24 09:21:57;;;;;;;61.23;32.00;;;;;;;-0.26;91.31;98246.06;1657917;86;25577;-74
2021/12/24 09:24:27;;;;;;;62.40;33.40;;;;;;;-0.24;91.33;98238.08;1657928;86;27338;-74
2021/12/24 09:26:56;;;;;;;57.15;31.35;;;;;;;-0.22;91.17;98238.57;1657841;86;25594;-74
2021/12/24 09:29:24;;;;;;;61.63;33.50;;;;;;;-0.16;91.28;98239.27;1658077;86;25519;-74
2021/12/24 09:31:51;;;;;;;57.78;30.97;;;;;;;-0.13;91.26;98231.28;1635035;86;25643;-74
2021/12/24 09:34:18;;;;;;;58.13;30.92;;;;;;;-0.10;91.24;98231.48;1635083;86;25490;-74
2021/12/24 09:36:45;;;;;;;56.18;30.43;;;;;;;-0.08;91.14;98233.86;1658419;86;28197;-74
2021/12/24 09:39:11;;;;;;;53.65;29.87;;;;;;;-0.06;91.22;98228.49;1658380;86;25635;-74
2021/12/24 09:41:38;;;;;;;56.05;29.82;;;;;;;-0.03;91.18;98230.58;1658824;86;25500;-74
2021/12/24 09:44:06;;;;;;;57.05;30.77;;;;;;;-0.03;91.01;98220.50;1657923;86;25687;-74
2021/12/24 09:46:33;;;;;;;55.05;30.02;;;;;;;0.02;91.16;98218.28;1657886;86;25437;-74
2021/12/24 09:49:00;;;;;;;54.95;29.10;;;;;;;0.04;91.09;98209.50;1612994;86;27423;-74
2021/12/24 09:51:27;;;;;;;53.75;28.60;;;;;;;0.03;90.90;98211.34;1657777;86;25477;-74
2021/12/24 09:53:56;;;;;;;58.42;31.10;;;;;;;0.06;90.89;98217.97;1658027;86;25473;-74
2021/12/24 09:56:24;;;;;;;56.85;29.40;;;;;;;0.06;90.89;98216.63;1658041;86;25736;-74
2021/12/24 09:58:51;;;;;;;51.08;28.57;;;;;;;0.11;91.11;98216.00;1657780;86;25499;-74
2021/12/24 10:01:31;;;;;;;49.60;28.85;;;;;;;0.15;91.02;98214.36;1634468;86;27400;-74
2021/12/24 10:04:09;;;;;;;51.55;28.35;;;;;;;0.17;90.70;98199.42;1657220;86;25785;-74
2021/12/24 10:06:37;;;;;;;52.43;28.70;;;;;;;0.19;90.83;98197.28;1656928;86;25663;-74
2021/12/24 10:09:12;;;;;;;54.10;29.43;;;;;;;0.26;91.13;98199.56;1658082;86;25634;-74
2021/12/24 10:11:50;;;;;;;51.65;29.48;;;;;;;0.29;90.67;98204.28;1657910;86;25428;-74
2021/12/24 10:14:15;;;;;;;53.52;28.87;;;;;;;0.32;90.67;98205.84;1656593;86;27429;-73
2021/12/24 10:16:48;;;;;;;51.73;29.48;;;;;;;0.36;90.46;98203.38;1657740;86;25646;-74
2021/12/24 10:19:16;;;;;;;54.63;30.08;;;;;;;0.33;90.33;98194.11;1657877;86;25522;-73
2021/12/24 10:21:45;;;;;;;47.62;26.68;;;;;;;0.35;90.46;98197.25;1634927;86;25658;-74
2021/12/24 10:24:18;;;;;;;53.28;30.37;;;;;;;0.40;90.59;98202.25;1659110;86;25189;-73
2021/12/24 10:26:55;;;;;;;51.35;28.67;;;;;;;0.42;90.52;98206.73;1658402;86;27327;-73
2021/12/24 10:29:37;;;;;;;49.42;28.02;;;;;;;0.43;90.29;98209.66;1658287;86;25860;-74
2021/12/24 10:32:19;;;;;;;50.90;27.67;;;;;;;0.41;90.00;98192.66;1658529;86;25673;-74
2021/12/24 10:34:47;;;;;;;47.48;27.50;;;;;;;0.39;89.90;98180.17;1659964;86;25692;-74
2021/12/24 10:37:26;;;;;;;50.28;27.85;;;;;;;0.38;89.84;98165.31;1634827;86;25466;-74
2021/12/24 10:40:00;;;;;;;52.15;28.73;;;;;;;0.37;89.83;98175.69;1657852;86;27478;-74
2021/12/24 10:42:37;;;;;;;52.58;28.60;;;;;;;0.38;90.00;98184.48;1657906;86;25768;-74
2021/12/24 10:45:10;;;;;;;52.08;28.60;;;;;;;0.38;89.93;98183.15;1657928;86;25654;-74
2021/12/24 10:47:40;;;;;;;47.60;26.37;;;;;;;0.35;89.88;98189.83;1657818;86;26178;-74
2021/12/24 10:53:18;;;;;;;51.08;27.07;;;;;;;0.34;90.01;98173.61;1657916;86;27933;-74
2021/12/24 10:55:51;;;;;;;49.70;28.15;;;;;;;0.36;90.02;98164.82;1657461;86;25473;-74
2021/12/24 10:58:26;;;;;;;55.67;29.07;;;;;;;0.37;90.15;98149.09;1657842;86;25443;-74
2021/12/24 11:01:01;;;;;;;55.85;31.42;;;;;;;0.41;90.10;98155.94;1657816;86;26212;-75
2021/12/24 11:03:32;;;;;;;57.58;30.48;;;;;;;0.42;90.15;98141.57;1657864;86;25497;-73
2021/12/24 11:06:11;;;;;;;59.98;31.57;;;;;;;0.44;90.16;98132.20;1657903;86;27381;-73
2021/12/24 11:08:39;;;;;;;57.85;30.17;;;;;;;0.45;90.00;98131.67;1634592;86;25615;-73
2021/12/24 11:11:11;;;;;;;54.93;30.25;;;;;;;0.44;89.80;98121.55;1657809;86;25477;-73
2021/12/24 11:13:43;;;;;;;53.52;29.12;;;;;;;0.45;90.00;98121.03;1657820;86;26203;-75
2021/12/24 11:16:14;;;;;;;55.48;30.35;;;;;;;0.48;90.07;98121.23;1657792;86;25496;-75
2021/12/24 11:18:45;;;;;;;56.68;29.45;;;;;;;0.52;90.04;98120.09;1657645;86;28231;-75
2021/12/24 11:21:19;;;;;;;54.23;28.90;;;;;;;0.52;90.02;98105.47;1657767;86;25659;-76
2021/12/24 11:23:47;;;;;;;55.80;30.77;;;;;;;0.52;89.85;98118.22;1657892;86;25514;-74
2021/12/24 11:26:22;;;;;;;54.15;29.23;;;;;;;0.51;89.85;98121.98;1657787;86;25781;-74
2021/12/24 11:28:49;;;;;;;59.55;29.63;;;;;;;0.49;89.74;98126.78;1651100;85;25657;-74
2021/12/24 11:31:28;;;;;;;58.23;30.08;;;;;;;0.46;89.88;98135.89;1657750;86;27475;-73
2021/12/24 11:33:58;;;;;;;56.80;30.70;;;;;;;0.42;89.85;98133.04;1658085;86;30075;-73
2021/12/24 11:36:28;;;;;;;58.80;29.95;;;;;;;0.40;90.06;98126.45;1658020;86;25651;-73
2021/12/24 11:38:59;;;;;;;58.92;31.07;;;;;;;0.37;90.05;98122.50;1634602;86;25573;-74
2021/12/24 11:41:31;;;;;;;58.42;31.05;;;;;;;0.35;90.04;98121.45;1657978;86;25448;-74
2021/12/24 11:43:58;;;;;;;61.13;31.85;;;;;;;0.36;90.25;98122.27;1657958;86;27344;-73
2021/12/24 11:46:26;;;;;;;59.60;31.02;;;;;;;0.34;90.30;98129.20;1657819;86;25589;-74
2021/12/24 11:48:56;;;;;;;65.13;32.90;;;;;;;0.33;90.40;98134.81;1658203;86;25433;-75
2021/12/24 11:51:30;;;;;;;67.17;32.63;;;;;;;0.31;90.52;98134.33;1635206;86;26294;-73
2021/12/24 11:54:04;;;;;;;70.87;33.42;;;;;;;0.32;90.66;98131.90;1658074;86;25639;-74
2021/12/24 11:56:44;;;;;;;63.02;34.23;;;;;;;0.34;90.83;98131.86;1657919;86;27411;-74
2021/12/24 11:59:11;;;;;;;67.27;33.45;;;;;;;0.36;90.95;98115.62;1657359;86;25526;-73
2021/12/24 12:01:43;;;;;;;66.82;33.88;;;;;;;0.37;90.93;98111.86;1634864;86;25627;-76
2021/12/24 12:04:22;;;;;;;70.65;33.80;;;;;;;0.38;90.89;98108.67;1657857;86;26295;-75
2021/12/24 12:06:51;;;;;;;65.57;32.58;;;;;;;0.38;90.94;98097.48;1635271;86;25501;-75
2021/12/24 12:09:17;;;;;;;65.92;33.48;;;;;;;0.38;90.96;98093.50;1657877;86;27969;-75
2021/12/24 12:11:48;;;;;;;64.25;32.98;;;;;;;0.39;91.02;98105.70;1634716;86;25674;-74
2021/12/24 12:14:23;;;;;;;64.35;33.38;;;;;;;0.39;91.08;98103.58;1657585;86;25598;-75
2021/12/24 12:16:53;;;;;;;70.20;34.40;;;;;;;0.42;91.20;98119.73;1657367;84;25644;-76
2021/12/24 12:19:38;;;;;;;71.10;33.55;;;;;;;0.44;91.25;98111.47;1655067;86;25516;-74
2021/12/24 12:22:33;;;;;;;67.35;32.88;;;;;;;0.42;91.14;98117.08;1657197;86;27988;-74
2021/12/24 12:25:11;;;;;;;66.00;32.83;;;;;;;0.43;91.23;98104.04;1657048;86;25677;-75
2021/12/24 12:27:53;;;;;;;64.67;32.95;;;;;;;0.46;91.29;98107.45;1634612;86;25502;-74
2021/12/24 12:30:39;;;;;;;63.15;31.48;;;;;;;0.47;91.26;98119.64;1657912;86;25613;-73
2021/12/24 12:33:16;;;;;;;61.50;31.33;;;;;;;0.48;91.17;98111.92;1657818;86;25481;-74
2021/12/24 12:35:57;;;;;;;66.30;33.00;;;;;;;0.47;91.12;98106.34;1657923;86;27352;-74
2021/12/24 12:38:44;;;;;;;62.35;32.40;;;;;;;0.47;91.11;98112.99;1657893;86;25629;-74
2021/12/24 12:41:35;;;;;;;66.90;31.82;;;;;;;0.46;91.04;98131.38;1655422;86;25511;-73
2021/12/24 12:44:06;;;;;;;58.70;30.37;;;;;;;0.45;91.12;98121.81;1635785;86;25686;-74
2021/12/24 12:46:39;;;;;;;57.83;31.70;;;;;;;0.44;91.21;98124.22;1657094;86;25621;-74
2021/12/24 12:49:10;;;;;;;59.73;31.02;;;;;;;0.44;91.11;98120.78;1634842;86;27513;-75
2021/12/24 12:52:02;;;;;;;58.78;29.23;;;;;;;0.42;91.21;98113.64;1657849;86;25480;-75
2021/12/24 12:54:44;;;;;;;51.75;28.17;;;;;;;0.42;91.27;98102.45;1658022;86;25605;-74
2021/12/24 12:57:27;;;;;;;53.75;27.82;;;;;;;0.44;91.47;98099.50;1657783;86;25661;-74
2021/12/24 13:00:19;;;;;;;50.20;26.62;;;;;;;0.44;91.47;98096.84;1656855;86;25439;-74
2021/12/24 13:05:43;;;;;;;48.45;27.65;;;;;;;0.43;91.58;98084.64;1658329;86;25671;-74
2021/12/24 13:08:14;;;;;;;47.50;26.12;;;;;;;0.42;91.77;98081.17;1637026;86;25622;-74